Time;durP1;ratioP1;P1;durP2;ratioP2;P2;SDS_P1;SDS_P2;PMS_P1;PMS_P2;Temp;Humidity;BMP_temperature;BMP_pressure;BME280_temperature;BME280_humidity;BME280_pressure;Samples;Min_cycle;Max_cycle;Signal;HPM_P1;HPM_P2
2023/11/04 00:01:20;;;;;;;3.80;2.80;;;;;;;6.35;100.00;95806.66;1225089;75;2914596;-70
2023/11/04 00:03:53;;;;;;;3.55;2.55;;;;;;;6.17;100.00;95810.56;1224473;75;2929425;-73
2023/11/04 00:06:26;;;;;;;6.65;4.65;;;;;;;5.96;100.00;95804.63;1223819;75;2964669;-72
2023/11/04 00:08:58;;;;;;;5.05;3.80;;;;;;;6.19;100.00;95805.41;1224616;75;2939910;-71
2023/11/04 00:11:33;;;;;;;4.60;3.15;;;;;;;6.20;100.00;95806.13;1224612;75;2930284;-72
2023/11/04 00:14:06;;;;;;;4.60;3.30;;;;;;;6.21;100.00;95804.19;1224566;75;2916203;-70
2023/11/04 00:16:39;;;;;;;4.50;3.00;;;;;;;6.09;100.00;95806.13;1225099;75;2917574;-69
2023/11/04 00:19:12;;;;;;;4.10;2.90;;;;;;;5.96;100.00;95803.84;1225258;75;2925717;-70
2023/11/04 00:21:44;;;;;;;4.40;2.75;;;;;;;5.98;100.00;95804.84;1224710;75;2927548;-73
2023/11/04 00:24:19;;;;;;;2.30;2.10;;;;;;;5.86;100.00;95800.59;1224889;75;2914905;-72
2023/11/04 00:26:54;;;;;;;3.45;2.45;;;;;;;5.77;100.00;95792.66;1224635;75;2921473;-70
2023/11/04 00:29:26;;;;;;;2.65;2.25;;;;;;;5.72;100.00;95796.09;1224864;75;2925954;-69
2023/11/04 00:31:59;;;;;;;2.85;2.50;;;;;;;5.78;100.00;95805.03;1225098;75;2921041;-72
2023/11/04 00:34:33;;;;;;;2.60;2.20;;;;;;;5.74;100.00;95809.94;1225922;75;2925166;-71
2023/11/04 00:37:06;;;;;;;2.60;2.10;;;;;;;5.68;100.00;95801.03;1225410;75;2935095;-71
2023/11/04 00:39:38;;;;;;;2.00;1.80;;;;;;;5.74;100.00;95821.53;1226236;75;2917283;-71
2023/11/04 00:42:14;;;;;;;2.00;1.80;;;;;;;5.74;100.00;95805.25;1225605;75;2900850;-71
2023/11/04 00:44:46;;;;;;;1.40;1.30;;;;;;;5.71;100.00;95797.34;1224401;75;2920969;-70
2023/11/04 00:47:19;;;;;;;2.10;1.60;;;;;;;5.61;100.00;95796.81;1226066;75;2912561;-70
2023/11/04 00:49:52;;;;;;;1.70;1.50;;;;;;;5.62;100.00;95792.13;1225467;75;2919623;-70
2023/11/04 00:52:25;;;;;;;1.40;1.30;;;;;;;5.48;100.00;95810.06;1223076;75;2928105;-73
2023/11/04 00:54:57;;;;;;;1.90;1.70;;;;;;;5.53;100.00;95806.63;1225821;75;2937725;-70
2023/11/04 00:57:33;;;;;;;1.60;1.50;;;;;;;5.45;100.00;95816.47;1225078;75;2919240;-70
2023/11/04 01:00:07;;;;;;;1.30;1.20;;;;;;;5.40;100.00;95820.66;1225808;75;2922159;-71
2023/11/04 01:02:39;;;;;;;1.65;1.55;;;;;;;5.36;100.00;95828.28;1225881;75;2915404;-71
2023/11/04 01:05:12;;;;;;;1.60;1.50;;;;;;;5.22;100.00;95821.81;1222773;75;2916371;-71
2023/11/04 01:07:45;;;;;;;1.30;1.20;;;;;;;5.20;100.00;95821.53;1224940;75;2923406;-70
2023/11/04 01:10:18;;;;;;;3.10;1.45;;;;;;;5.00;100.00;95835.94;1224469;75;2917684;-72
2023/11/04 01:12:53;;;;;;;1.50;1.40;;;;;;;5.19;100.00;95835.56;1225279;75;2916373;-69
2023/11/04 01:15:26;;;;;;;1.30;1.20;;;;;;;5.19;100.00;95841.72;1226057;75;2917695;-72
2023/11/04 01:17:59;;;;;;;1.60;1.40;;;;;;;5.19;100.00;95838.28;1226413;75;2921366;-70
2023/11/04 01:20:32;;;;;;;1.25;1.15;;;;;;;5.20;100.00;95843.25;1225317;75;2919902;-70
2023/11/04 01:23:02;;;;;;;1.50;1.40;;;;;;;5.17;100.00;95838.78;1221639;75;2947510;-69
2023/11/04 01:25:34;;;;;;;1.40;1.30;;;;;;;5.09;100.00;95838.47;1225668;75;2899182;-70
2023/11/04 01:28:10;;;;;;;1.40;1.30;;;;;;;5.04;100.00;95844.59;1225135;75;2915645;-70
2023/11/04 01:30:42;;;;;;;1.40;1.30;;;;;;;5.04;100.00;95846.56;1223655;75;2925701;-71
2023/11/04 01:33:15;;;;;;;1.35;1.25;;;;;;;4.98;100.00;95845.78;1225275;75;2921179;-69
2023/11/04 01:35:48;;;;;;;1.40;1.30;;;;;;;4.93;100.00;95860.81;1224875;75;2917429;-69
2023/11/04 01:38:20;;;;;;;1.30;1.20;;;;;;;4.90;100.00;95859.03;1225480;75;2920594;-69
2023/11/04 01:40:54;;;;;;;1.40;1.30;;;;;;;4.88;100.00;95864.19;1224971;75;2917547;-69
2023/11/04 01:43:31;;;;;;;1.70;1.40;;;;;;;4.83;100.00;95873.03;1225206;75;2924378;-70
2023/11/04 01:46:29;;;;;;;1.35;1.25;;;;;;;4.80;100.00;95868.59;1225135;75;2920575;-71
2023/11/04 01:49:01;;;;;;;1.50;1.40;;;;;;;4.78;100.00;95852.78;1224936;75;2924384;-71
2023/11/04 01:51:35;;;;;;;1.00;1.00;;;;;;;4.73;100.00;95852.75;1224906;75;2918906;-72
2023/11/04 01:54:08;;;;;;;1.50;1.40;;;;;;;4.55;100.00;95845.72;1225475;75;2915563;-72
2023/11/04 01:56:41;;;;;;;1.40;1.30;;;;;;;4.36;100.00;95853.41;1225687;75;2911628;-71
2023/11/04 01:59:18;;;;;;;1.70;1.60;;;;;;;4.48;100.00;95860.44;1224701;75;2916900;-73
2023/11/04 02:01:51;;;;;;;1.60;1.10;;;;;;;4.35;100.00;95862.75;1225446;75;2924325;-69
2023/11/04 02:04:24;;;;;;;1.20;1.10;;;;;;;4.23;100.00;95859.19;1225229;75;2920340;-71
2023/11/04 02:06:56;;;;;;;1.50;1.30;;;;;;;4.05;100.00;95869.09;1224957;75;2911731;-70
2023/11/04 02:09:29;;;;;;;1.35;1.25;;;;;;;4.10;100.00;95875.81;1225329;75;2917032;-70
2023/11/04 02:12:03;;;;;;;1.30;1.20;;;;;;;4.24;100.00;95882.34;1223990;75;2918239;-70
2023/11/04 02:14:39;;;;;;;1.60;1.45;;;;;;;4.18;100.00;95876.13;1224698;75;2920939;-70
2023/11/04 02:17:12;;;;;;;1.50;1.40;;;;;;;4.06;100.00;95888.78;1225501;75;2926442;-70
2023/11/04 02:19:45;;;;;;;1.55;1.40;;;;;;;4.04;100.00;95893.94;1224864;75;2922992;-70
2023/11/04 02:22:20;;;;;;;3.50;1.50;;;;;;;3.99;100.00;95900.81;1224783;75;2918298;-70
2023/11/04 02:24:53;;;;;;;2.05;1.70;;;;;;;4.17;100.00;95904.44;1225201;75;2921039;-69
2023/11/04 02:27:25;;;;;;;1.30;1.20;;;;;;;4.21;100.00;95894.88;1224896;75;2924534;-70
2023/11/04 02:29:58;;;;;;;1.40;1.20;;;;;;;4.19;100.00;95883.78;1224122;75;2990716;-70
2023/11/04 02:32:31;;;;;;;1.65;1.45;;;;;;;4.12;100.00;95897.75;1225347;75;2917515;-71
2023/11/04 02:35:04;;;;;;;1.20;1.10;;;;;;;4.15;100.00;95894.06;1223974;75;2926583;-68
2023/11/04 02:37:39;;;;;;;1.30;1.20;;;;;;;4.22;100.00;95896.38;1225469;75;2915359;-70
2023/11/04 02:40:13;;;;;;;1.30;1.20;;;;;;;4.26;100.00;95896.16;1224191;75;2913304;-71
2023/11/04 02:42:46;;;;;;;1.25;1.15;;;;;;;4.32;100.00;95904.34;1224856;75;2892718;-71
2023/11/04 02:45:18;;;;;;;0.90;0.90;;;;;;;4.33;100.00;95900.41;1224120;75;2922034;-73
2023/11/04 02:47:51;;;;;;;1.10;1.00;;;;;;;4.30;100.00;95895.94;1225336;75;2921211;-69
2023/11/04 02:50:24;;;;;;;1.45;1.25;;;;;;;4.29;100.00;95906.03;1225451;75;2924210;-70
2023/11/04 02:52:59;;;;;;;1.10;1.00;;;;;;;4.26;100.00;95904.28;1225099;75;2922414;-69
2023/11/04 02:55:32;;;;;;;0.90;0.90;;;;;;;4.17;100.00;95907.16;1224786;75;2946508;-69
2023/11/04 02:58:05;;;;;;;0.90;0.90;;;;;;;4.18;100.00;95916.75;1225129;75;2918532;-72
2023/11/04 03:00:37;;;;;;;0.90;0.70;;;;;;;4.15;100.00;95912.28;1224948;75;2924200;-69
2023/11/04 03:03:10;;;;;;;1.00;1.00;;;;;;;3.97;100.00;95905.16;1225086;75;2929423;-70
2023/11/04 03:05:45;;;;;;;1.65;0.95;;;;;;;4.04;100.00;95907.47;1225410;75;2916910;-70
2023/11/04 03:08:20;;;;;;;1.95;1.30;;;;;;;3.99;100.00;95903.50;1224719;75;2925938;-71
2023/11/04 03:10:53;;;;;;;3.70;1.20;;;;;;;4.06;100.00;95910.44;1222348;75;3028763;-69
2023/11/04 03:13:26;;;;;;;1.10;1.00;;;;;;;3.96;100.00;95904.44;1222528;75;2924425;-70
2023/11/04 03:15:58;;;;;;;1.10;1.00;;;;;;;4.02;100.00;95912.66;1224660;75;2924919;-72
2023/11/04 03:18:31;;;;;;;0.80;0.80;;;;;;;4.15;100.00;95915.75;1225378;75;2919403;-70
2023/11/04 03:21:10;;;;;;;0.80;0.80;;;;;;;4.18;100.00;95914.03;1225312;75;2916536;-73
2023/11/04 03:23:47;;;;;;;0.90;0.80;;;;;;;4.10;100.00;95907.56;1225555;75;2922773;-70
2023/11/04 03:26:20;;;;;;;0.65;0.65;;;;;;;4.11;100.00;95911.75;1225147;75;2923924;-69
2023/11/04 03:28:53;;;;;;;0.90;0.90;;;;;;;3.99;100.00;95914.34;1225548;75;2918161;-72
2023/11/04 03:31:25;;;;;;;0.80;0.80;;;;;;;3.96;100.00;95920.69;1223554;75;2957600;-71
2023/11/04 03:33:58;;;;;;;0.70;0.70;;;;;;;3.93;100.00;95913.50;1225520;75;2916544;-72
2023/11/04 03:36:30;;;;;;;0.70;0.70;;;;;;;3.87;100.00;95923.50;1225325;75;2906432;-71
2023/11/04 03:39:06;;;;;;;0.75;0.75;;;;;;;3.78;100.00;95926.38;1224454;75;2921159;-73
2023/11/04 03:41:39;;;;;;;0.90;0.90;;;;;;;3.70;100.00;95931.41;1226020;75;2922786;-70
2023/11/04 03:44:12;;;;;;;0.60;0.60;;;;;;;3.70;100.00;95938.78;1226057;75;2913506;-70
2023/11/04 03:46:44;;;;;;;0.70;0.70;;;;;;;3.54;100.00;95943.50;1225023;75;2919902;-71
2023/11/04 03:49:17;;;;;;;0.80;0.80;;;;;;;3.53;100.00;95946.69;1224992;75;2912041;-70
2023/11/04 03:51:49;;;;;;;1.25;1.00;;;;;;;3.52;100.00;95945.94;1225862;75;2924900;-69
2023/11/04 03:54:25;;;;;;;0.85;0.85;;;;;;;3.52;100.00;95942.50;1225190;75;2913334;-68
2023/11/04 03:56:57;;;;;;;0.90;0.90;;;;;;;3.48;100.00;95947.34;1225215;75;2929498;-72
2023/11/04 03:59:30;;;;;;;1.20;1.00;;;;;;;3.46;100.00;95939.69;1221902;75;3111025;-70
2023/11/04 04:02:03;;;;;;;0.80;0.80;;;;;;;3.40;100.00;95934.22;1226845;75;2911741;-70
2023/11/04 04:04:35;;;;;;;0.90;0.90;;;;;;;3.42;100.00;95933.75;1224529;75;2922754;-70
2023/11/04 04:07:08;;;;;;;0.80;0.80;;;;;;;3.06;100.00;95935.66;1225560;75;2917121;-70
2023/11/04 04:09:43;;;;;;;1.20;1.10;;;;;;;2.96;100.00;95948.53;1225508;75;2918427;-70
2023/11/04 04:12:16;;;;;;;1.15;1.05;;;;;;;3.14;100.00;95958.41;1225022;75;2917754;-71
2023/11/04 04:14:48;;;;;;;1.10;0.80;;;;;;;3.18;100.00;95952.81;1224397;75;2917569;-69
2023/11/04 04:17:21;;;;;;;0.90;0.90;;;;;;;3.21;100.00;95959.97;1225318;75;2923816;-69
2023/11/04 04:19:54;;;;;;;1.00;1.00;;;;;;;3.23;100.00;95964.94;1224271;75;2924912;-69
2023/11/04 04:22:26;;;;;;;1.15;1.05;;;;;;;3.12;100.00;95950.00;1225092;75;2926030;-70
2023/11/04 04:25:02;;;;;;;1.10;0.90;;;;;;;3.14;100.00;95947.59;1225306;75;2915313;-69
2023/11/04 04:27:35;;;;;;;1.15;1.05;;;;;;;3.11;100.00;95947.78;1225275;75;2928466;-72
2023/11/04 04:30:10;;;;;;;1.15;1.05;;;;;;;3.15;100.00;95946.38;1224559;75;2918634;-70
2023/11/04 04:32:42;;;;;;;0.80;0.80;;;;;;;3.06;100.00;95948.44;1224778;75;2922216;-72
2023/11/04 04:35:15;;;;;;;0.85;0.80;;;;;;;2.93;100.00;95954.84;1224839;75;2898890;-69
2023/11/04 04:37:47;;;;;;;0.80;0.80;;;;;;;2.98;100.00;95951.53;1223967;75;2922318;-69
2023/11/04 04:40:23;;;;;;;0.80;0.80;;;;;;;2.90;100.00;95949.66;1225063;75;2915102;-71
2023/11/04 04:42:55;;;;;;;0.75;0.75;;;;;;;2.86;100.00;95951.78;1225481;75;2922499;-70
2023/11/04 04:45:28;;;;;;;1.00;0.75;;;;;;;2.83;100.00;95958.13;1224710;75;2925983;-70
2023/11/04 04:48:01;;;;;;;0.90;0.90;;;;;;;2.75;100.00;95955.06;1225968;75;2929368;-72
2023/11/04 04:50:34;;;;;;;1.90;1.70;;;;;;;2.44;100.00;95955.47;1224834;75;2921266;-70
2023/11/04 04:53:07;;;;;;;1.70;1.40;;;;;;;2.68;100.00;95960.81;1225692;75;2922257;-70
2023/11/04 04:55:43;;;;;;;2.50;1.45;;;;;;;2.58;100.00;95957.47;1222394;75;3044263;-71
2023/11/04 04:58:17;;;;;;;1.60;1.50;;;;;;;2.60;100.00;95946.94;1225984;75;2919459;-71
2023/11/04 05:00:50;;;;;;;1.55;1.45;;;;;;;2.77;100.00;95958.03;1225607;75;2919267;-70
2023/11/04 05:03:22;;;;;;;1.65;1.55;;;;;;;2.66;100.00;95960.53;1225616;75;2913586;-72
2023/11/04 05:05:55;;;;;;;1.70;1.60;;;;;;;2.73;100.00;95966.31;1225282;75;2919208;-70
2023/11/04 05:08:28;;;;;;;1.60;1.50;;;;;;;2.49;100.00;95960.97;1224379;75;2922315;-71
2023/11/04 05:11:03;;;;;;;1.60;1.50;;;;;;;2.70;100.00;95967.25;1225521;75;2922056;-71
2023/11/04 05:13:35;;;;;;;1.30;1.20;;;;;;;2.68;100.00;95971.63;1223592;75;2940086;-69
2023/11/04 05:16:10;;;;;;;1.60;1.50;;;;;;;2.39;100.00;95973.06;1224563;75;2921125;-70
2023/11/04 05:18:42;;;;;;;1.40;1.30;;;;;;;2.52;100.00;95989.00;1224137;75;2920630;-71
2023/11/04 05:21:16;;;;;;;1.80;1.50;;;;;;;2.35;100.00;95984.03;1223172;75;3000038;-69
2023/11/04 05:23:50;;;;;;;2.55;2.35;;;;;;;2.17;100.00;95988.84;1225201;75;2926590;-71
2023/11/04 05:26:25;;;;;;;2.50;2.10;;;;;;;2.28;100.00;95991.75;1226040;75;2916751;-72
2023/11/04 05:28:59;;;;;;;2.60;2.40;;;;;;;2.21;100.00;95995.53;1223044;75;2927013;-71
2023/11/04 05:31:31;;;;;;;3.80;2.55;;;;;;;2.01;100.00;96003.47;1224452;75;2928356;-72
2023/11/04 05:34:04;;;;;;;2.85;2.25;;;;;;;2.12;100.00;96009.84;1221246;75;3041246;-73
2023/11/04 05:36:36;;;;;;;2.10;1.90;;;;;;;2.37;100.00;96007.88;1224933;75;2929145;-70
2023/11/04 05:39:09;;;;;;;3.65;1.90;;;;;;;2.36;100.00;96017.19;1225085;75;2914973;-71
2023/11/04 05:41:46;;;;;;;1.75;1.65;;;;;;;2.13;100.00;96019.44;1222018;75;3054010;-71
2023/11/04 05:44:18;;;;;;;1.75;1.65;;;;;;;2.24;100.00;96031.69;1223870;75;2915450;-71
2023/11/04 05:46:51;;;;;;;1.80;1.70;;;;;;;2.31;100.00;96040.19;1224884;75;2929368;-70
2023/11/04 05:49:24;;;;;;;1.60;1.50;;;;;;;2.59;100.00;96031.88;1224175;75;2921389;-69
2023/11/04 05:51:56;;;;;;;1.95;1.45;;;;;;;2.58;100.00;96035.78;1224156;75;2925430;-72
2023/11/04 05:54:29;;;;;;;1.30;1.20;;;;;;;2.76;100.00;96026.78;1224978;75;2919575;-68
2023/11/04 05:57:05;;;;;;;1.00;0.90;;;;;;;2.82;100.00;96035.75;1225237;75;2918569;-71
2023/11/04 05:59:37;;;;;;;1.60;1.10;;;;;;;2.83;100.00;96031.09;1224249;75;2933130;-73
2023/11/04 06:02:10;;;;;;;1.70;1.60;;;;;;;2.70;100.00;96037.50;1223931;75;2929432;-71
2023/11/04 06:04:43;;;;;;;1.85;1.75;;;;;;;2.79;100.00;96028.56;1225107;75;2914360;-71
2023/11/04 06:07:15;;;;;;;1.40;1.30;;;;;;;2.85;100.00;96029.41;1225447;75;2918247;-69
2023/11/04 06:09:48;;;;;;;1.70;1.60;;;;;;;3.04;100.00;96029.25;1224496;75;2927618;-71
2023/11/04 06:12:23;;;;;;;1.90;1.50;;;;;;;3.17;100.00;96033.16;1224267;75;2932378;-69
2023/11/04 06:14:56;;;;;;;2.55;1.60;;;;;;;3.23;100.00;96030.56;1224105;75;2937630;-70
2023/11/04 06:17:29;;;;;;;1.50;1.40;;;;;;;3.32;100.00;96030.47;1223781;75;2923435;-72
2023/11/04 06:20:02;;;;;;;2.50;1.30;;;;;;;3.37;100.00;96029.81;1223834;75;2923744;-72
2023/11/04 06:22:35;;;;;;;1.70;1.40;;;;;;;3.38;100.00;96028.59;1224163;75;2924685;-70
2023/11/04 06:25:09;;;;;;;4.10;1.30;;;;;;;3.45;100.00;96018.63;1222507;75;2925981;-70
2023/11/04 06:27:44;;;;;;;1.20;1.05;;;;;;;3.49;100.00;96019.16;1224463;75;2928322;-71
2023/11/04 06:30:17;;;;;;;2.40;1.45;;;;;;;3.54;100.00;96023.94;1224223;75;2926076;-69
2023/11/04 06:32:50;;;;;;;1.25;1.15;;;;;;;3.61;100.00;96018.88;1223960;75;2915528;-71
2023/11/04 06:35:24;;;;;;;1.60;1.30;;;;;;;3.68;100.00;96020.47;1224345;75;2925581;-70
2023/11/04 06:37:57;;;;;;;1.80;1.60;;;;;;;3.79;100.00;96015.19;1224815;75;2922632;-72
2023/11/04 06:40:30;;;;;;;2.05;1.80;;;;;;;3.88;100.00;96022.47;1224394;75;2924590;-69
2023/11/04 06:43:05;;;;;;;2.20;1.70;;;;;;;4.01;100.00;96032.97;1225571;75;2927265;-71
2023/11/04 06:45:38;;;;;;;2.60;2.05;;;;;;;3.59;100.00;96026.72;1224730;75;2922831;-71
2023/11/04 06:48:11;;;;;;;3.30;2.70;;;;;;;3.94;100.00;96023.28;1225246;75;2914809;-71
2023/11/04 06:50:44;;;;;;;3.35;2.70;;;;;;;3.91;100.00;96020.78;1225293;75;2915568;-70
2023/11/04 06:53:17;;;;;;;3.10;2.80;;;;;;;3.33;100.00;96023.84;1224803;75;2918681;-71
2023/11/04 06:55:50;;;;;;;9.75;4.35;;;;;;;3.49;100.00;96030.75;1224280;75;2917395;-71
2023/11/04 06:58:25;;;;;;;6.55;5.20;;;;;;;3.36;100.00;96032.97;1225663;75;2920211;-68
2023/11/04 07:00:59;;;;;;;17.30;4.00;;;;;;;3.29;100.00;96034.09;1225151;75;2925272;-68
2023/11/04 07:03:32;;;;;;;3.60;3.15;;;;;;;3.51;100.00;96033.75;1225139;75;2916154;-71
2023/11/04 07:06:04;;;;;;;2.65;2.35;;;;;;;3.97;100.00;96030.47;1222231;75;3014525;-72
2023/11/04 07:08:38;;;;;;;6.45;3.45;;;;;;;3.81;100.00;96030.97;1221413;75;3029525;-72
2023/11/04 07:11:11;;;;;;;4.55;3.70;;;;;;;4.18;100.00;96033.94;1224094;75;2941862;-71
2023/11/04 07:13:47;;;;;;;7.55;5.60;;;;;;;3.89;100.00;96029.34;1223990;75;2933086;-71
2023/11/04 07:16:19;;;;;;;5.75;4.50;;;;;;;4.75;100.00;96021.81;1224382;75;2922082;-71
2023/11/04 07:18:52;;;;;;;7.50;5.65;;;;;;;5.05;100.00;96027.03;1223649;75;2925637;-70
2023/11/04 07:21:25;;;;;;;6.15;4.45;;;;;;;5.29;100.00;96035.69;1223788;75;2921170;-69
2023/11/04 07:23:57;;;;;;;3.45;3.05;;;;;;;5.63;100.00;96035.19;1224631;75;2918175;-70
2023/11/04 07:26:30;;;;;;;5.10;2.50;;;;;;;5.34;100.00;96036.97;1225413;68;2914823;-71
2023/11/04 07:29:06;;;;;;;4.95;3.60;;;;;;;4.75;100.00;96031.94;1224512;75;2920372;-70
2023/11/04 07:31:39;;;;;;;5.15;2.60;;;;;;;4.96;100.00;96033.38;1224293;75;2916654;-71
2023/11/04 07:34:11;;;;;;;4.55;2.90;;;;;;;4.70;100.00;96039.50;1225326;75;2933135;-71
2023/11/04 07:36:44;;;;;;;3.45;2.95;;;;;;;4.42;100.00;96041.13;1225359;75;2929028;-70
2023/11/04 07:39:17;;;;;;;9.50;7.90;;;;;;;5.29;100.00;96049.25;1224889;75;2921761;-71
2023/11/04 07:41:50;;;;;;;5.30;4.45;;;;;;;5.55;100.00;96049.19;1225123;75;2925904;-71
2023/11/04 07:44:26;;;;;;;5.10;4.45;;;;;;;5.43;100.00;96042.19;1211310;75;3944474;-71
2023/11/04 07:47:00;;;;;;;4.65;4.25;;;;;;;4.65;100.00;96047.59;1223745;75;2926616;-69
2023/11/04 07:49:32;;;;;;;4.35;3.95;;;;;;;5.01;100.00;96051.69;1224239;67;2979359;-70
2023/11/04 07:52:06;;;;;;;4.40;3.70;;;;;;;5.40;100.00;96039.72;1222924;75;2925493;-71
2023/11/04 07:54:38;;;;;;;3.85;3.45;;;;;;;5.49;100.00;96044.97;1224253;75;2922435;-70
2023/11/04 07:57:11;;;;;;;4.10;3.70;;;;;;;5.38;100.00;96044.88;1224059;75;2925026;-73
2023/11/04 07:59:46;;;;;;;4.20;3.50;;;;;;;5.67;100.00;96044.59;1223881;83;2931542;-70
2023/11/04 08:02:19;;;;;;;3.85;3.20;;;;;;;5.89;100.00;96044.03;1223676;75;2924674;-72
2023/11/04 08:04:52;;;;;;;3.20;2.80;;;;;;;5.71;100.00;96036.25;1223840;75;2931664;-71
2023/11/04 08:07:25;;;;;;;4.10;3.45;;;;;;;5.91;100.00;96032.69;1199331;75;4914521;-70
2023/11/04 08:09:58;;;;;;;4.40;3.75;;;;;;;5.79;100.00;96028.41;1223540;75;2919480;-69
2023/11/04 08:12:31;;;;;;;5.95;5.35;;;;;;;5.55;100.00;96040.31;1223760;75;2940587;-69
2023/11/04 08:15:08;;;;;;;7.15;6.15;;;;;;;5.23;100.00;96039.56;1223620;75;2927831;-70
2023/11/04 08:17:40;;;;;;;8.10;5.95;;;;;;;5.20;100.00;96041.25;1223597;75;2923772;-67
2023/11/04 08:20:15;;;;;;;12.85;5.85;;;;;;;5.76;100.00;96046.41;1223985;75;2927166;-71
2023/11/04 08:22:49;;;;;;;6.45;5.35;;;;;;;6.05;100.00;96047.38;1222778;75;2920082;-70
2023/11/04 08:25:22;;;;;;;7.50;5.85;;;;;;;6.12;100.00;96034.09;1223292;75;2918615;-72
2023/11/04 08:27:55;;;;;;;8.20;5.90;;;;;;;5.91;100.00;96035.41;1224751;75;2918433;-70
2023/11/04 08:30:30;;;;;;;9.30;6.35;;;;;;;5.52;100.00;96033.16;1224296;75;2916336;-72
2023/11/04 08:33:03;;;;;;;5.35;4.70;;;;;;;6.22;100.00;96026.47;1223778;75;2937184;-71
2023/11/04 08:35:35;;;;;;;6.85;6.15;;;;;;;5.75;100.00;96020.50;1224119;75;2919597;-68
2023/11/04 08:38:08;;;;;;;6.50;5.60;;;;;;;5.79;100.00;96014.84;1221393;75;2929938;-69
2023/11/04 08:40:42;;;;;;;12.20;6.05;;;;;;;6.13;100.00;96018.50;1223900;75;2921270;-69
2023/11/04 08:43:15;;;;;;;7.85;5.15;;;;;;;6.64;100.00;96007.88;1224448;75;2929802;-70
2023/11/04 08:45:51;;;;;;;8.80;6.80;;;;;;;6.26;100.00;96016.13;1211967;75;3791376;-70
2023/11/04 08:48:23;;;;;;;7.70;6.20;;;;;;;6.61;100.00;96018.50;1224065;75;2921399;-71
2023/11/04 08:50:56;;;;;;;7.85;6.55;;;;;;;6.66;100.00;96011.59;1224547;75;2919389;-68
2023/11/04 08:53:29;;;;;;;8.45;6.70;;;;;;;6.73;100.00;96021.25;1224713;75;2913816;-70
2023/11/04 08:56:03;;;;;;;7.20;6.50;;;;;;;6.79;100.00;96022.75;1224436;75;2940132;-70
2023/11/04 08:58:37;;;;;;;6.90;5.95;;;;;;;6.98;100.00;96008.72;1224501;75;2920293;-69
2023/11/04 09:01:12;;;;;;;9.10;6.65;;;;;;;7.32;100.00;96006.03;1223377;75;2913594;-71
2023/11/04 09:03:45;;;;;;;10.25;5.70;;;;;;;8.25;100.00;96000.25;1224961;75;2931638;-70
2023/11/04 09:06:17;;;;;;;9.40;6.25;;;;;;;8.81;100.00;95998.56;1219132;75;3113467;-71
2023/11/04 09:08:50;;;;;;;8.75;5.50;;;;;;;8.63;100.00;96014.25;1223324;75;2927964;-71
2023/11/04 09:11:23;;;;;;;7.95;6.35;;;;;;;8.39;100.00;96020.25;1225056;75;2920361;-71
2023/11/04 09:13:56;;;;;;;6.95;5.40;;;;;;;9.26;100.00;96015.41;1223036;75;3018840;-70
2023/11/04 09:16:32;;;;;;;5.25;4.30;;;;;;;9.94;100.00;96017.59;1224751;75;2934331;-69
2023/11/04 09:19:05;;;;;;;6.25;4.70;;;;;;;9.44;100.00;96018.75;1224770;75;2923868;-70
2023/11/04 09:21:38;;;;;;;6.45;4.80;;;;;;;9.72;100.00;96013.81;1223534;75;2924309;-70
2023/11/04 09:24:11;;;;;;;5.35;4.50;;;;;;;11.16;100.00;96010.47;1225601;75;2921807;-69
2023/11/04 09:26:45;;;;;;;5.50;4.45;;;;;;;11.25;90.72;96004.63;1223063;75;2930763;-72
2023/11/04 09:29:17;;;;;;;6.35;4.70;;;;;;;11.17;89.51;96003.75;1224873;75;2927339;-70
2023/11/04 09:31:54;;;;;;;6.35;4.20;;;;;;;11.58;84.85;96005.38;1224544;75;2921534;-72
2023/11/04 09:34:26;;;;;;;4.70;3.80;;;;;;;12.56;86.29;95985.47;1224816;75;2920689;-72
2023/11/04 09:36:59;;;;;;;6.60;4.00;;;;;;;12.69;81.35;95993.66;1224518;75;2928545;-69
2023/11/04 09:39:31;;;;;;;4.95;3.60;;;;;;;13.55;76.30;95980.31;1224952;75;2928090;-73
2023/11/04 09:42:04;;;;;;;7.10;4.45;;;;;;;12.44;79.97;95987.69;1224289;75;2928628;-70
2023/11/04 09:44:37;;;;;;;5.00;3.40;;;;;;;12.99;77.76;95989.81;1224353;75;2927732;-70
2023/11/04 09:47:13;;;;;;;5.65;4.00;;;;;;;12.63;77.66;95992.28;1224221;75;2923962;-69
2023/11/04 09:49:46;;;;;;;4.85;3.75;;;;;;;12.98;75.44;95986.31;1224350;75;2923184;-71
2023/11/04 09:52:19;;;;;;;4.45;3.45;;;;;;;12.92;78.87;95985.69;1224407;75;2935356;-73
2023/11/04 09:54:53;;;;;;;4.05;3.25;;;;;;;14.27;77.85;95976.97;1225440;75;2901909;-72
2023/11/04 09:57:26;;;;;;;4.45;3.80;;;;;;;12.80;76.34;95973.47;1224100;75;2918889;-70
2023/11/04 09:59:59;;;;;;;5.45;3.95;;;;;;;12.58;77.53;95969.19;1224257;75;2928001;-71
2023/11/04 10:02:35;;;;;;;6.30;5.15;;;;;;;12.22;79.54;95969.66;1224925;75;2914878;-71
2023/11/04 10:05:08;;;;;;;7.55;4.55;;;;;;;13.19;76.26;95964.38;1224827;75;2929996;-73
2023/11/04 10:07:41;;;;;;;7.75;5.00;;;;;;;12.34;79.51;95968.16;1225558;75;2921001;-71
2023/11/04 10:10:14;;;;;;;6.30;5.20;;;;;;;12.96;79.81;95961.41;1224631;75;2920841;-70
2023/11/04 10:12:46;;;;;;;6.35;5.05;;;;;;;12.61;77.27;95954.41;1223222;75;2921158;-70
2023/11/04 10:15:19;;;;;;;5.75;4.30;;;;;;;13.43;84.41;95959.84;1225048;75;2924368;-70
2023/11/04 10:17:54;;;;;;;5.55;4.65;;;;;;;12.56;79.45;95956.00;1224695;75;2928756;-69
2023/11/04 10:20:27;;;;;;;4.80;3.70;;;;;;;13.37;77.14;95953.75;1224836;75;2931379;-69
2023/11/04 10:23:00;;;;;;;4.95;3.95;;;;;;;13.75;75.54;95953.34;1225052;75;2924741;-71
2023/11/04 10:25:33;;;;;;;3.75;3.35;;;;;;;13.18;74.01;95951.91;1224980;75;2917970;-74
2023/11/04 10:28:06;;;;;;;5.85;3.80;;;;;;;13.69;76.27;95950.00;1225216;75;2934687;-71
2023/11/04 10:30:39;;;;;;;4.85;3.75;;;;;;;14.40;73.47;95951.34;1224762;75;2918425;-72
2023/11/04 10:33:16;;;;;;;4.95;3.85;;;;;;;13.63;76.23;95942.59;1224883;75;2922826;-72
2023/11/04 10:35:52;;;;;;;4.05;2.95;;;;;;;15.23;70.83;95934.94;1224601;75;2923318;-72
2023/11/04 10:38:29;;;;;;;4.25;3.30;;;;;;;14.39;71.64;95933.38;1224992;75;2923932;-69
2023/11/04 10:41:06;;;;;;;5.50;3.50;;;;;;;14.04;72.64;95934.81;1224945;75;2919163;-72
2023/11/04 10:43:43;;;;;;;4.10;3.25;;;;;;;13.49;74.80;95926.72;1223028;75;2918607;-72
2023/11/04 10:46:27;;;;;;;4.00;3.60;;;;;;;14.16;71.86;95922.22;1224897;75;2922163;-70
2023/11/04 10:49:18;;;;;;;3.75;3.05;;;;;;;14.01;72.66;95919.41;1224626;75;2933039;-73
2023/11/04 10:52:01;;;;;;;4.05;2.60;;;;;;;14.43;72.56;95917.25;1185435;75;5681524;-72
2023/11/04 10:54:43;;;;;;;5.25;2.85;;;;;;;14.61;69.28;95909.97;1223040;75;2953503;-70
2023/11/04 10:57:28;;;;;;;3.95;3.25;;;;;;;14.43;72.93;95913.72;1222349;75;2991493;-70
2023/11/04 11:00:10;;;;;;;4.65;3.10;;;;;;;14.22;71.87;95902.81;1222873;75;2945622;-72
2023/11/04 11:02:43;;;;;;;4.85;3.10;;;;;;;14.36;71.35;95903.41;1224833;75;2921037;-71
2023/11/04 11:05:22;;;;;;;3.30;2.65;;;;;;;15.77;68.86;95897.81;1223755;75;2924211;-70
2023/11/04 11:07:54;;;;;;;;;;;;;;;16.03;67.73;95881.41;1225659;75;2922766;-74
2023/11/04 11:10:34;;;;;;;2.90;2.35;;;;;;;15.81;64.53;95878.13;1224302;75;2916815;-69
2023/11/04 11:13:13;;;;;;;3.50;2.20;;;;;;;15.48;64.52;95872.44;1224579;75;2938546;-71
2023/11/04 11:15:47;;;;;;;3.10;2.15;;;;;;;15.60;64.60;95878.31;1224603;75;2920588;-70
2023/11/04 11:18:29;;;;;;;1.35;1.00;;;;;;;16.47;59.53;95881.78;1224587;75;2917158;-71
2023/11/04 11:21:14;;;;;;;2.75;2.15;;;;;;;16.98;60.95;95883.41;1222716;75;2946647;-75
2023/11/04 11:23:47;;;;;;;6.45;4.80;;;;;;;16.55;60.51;95870.75;1224387;75;2916330;-71
2023/11/04 11:26:20;;;;;;;5.60;2.65;;;;;;;17.59;59.54;95864.91;1224845;75;2922866;-71
2023/11/04 11:28:52;;;;;;;2.55;1.90;;;;;;;17.77;58.92;95862.88;1224869;75;2935925;-71
2023/11/04 11:31:31;;;;;;;2.40;1.70;;;;;;;16.79;59.21;95847.97;1224744;75;2925893;-69
2023/11/04 11:34:10;;;;;;;2.25;1.75;;;;;;;17.04;59.09;95839.69;1224966;75;2919960;-69
2023/11/04 11:36:47;;;;;;;1.70;1.30;;;;;;;16.89;58.18;95828.75;1225311;75;2923227;-70
2023/11/04 11:39:20;;;;;;;4.55;1.75;;;;;;;16.55;58.52;95826.53;1224672;75;2926972;-69
2023/11/04 11:41:53;;;;;;;1.80;0.90;;;;;;;17.43;56.18;95825.56;1225731;75;2917771;-68
2023/11/04 11:44:26;;;;;;;1.40;1.10;;;;;;;17.76;56.22;95819.91;1224690;75;2926621;-71
2023/11/04 11:46:59;;;;;;;2.75;1.40;;;;;;;17.56;53.71;95819.72;1224857;75;2919777;-71